createdAt,value
2018-04-30T00:00:09.048Z,65.84
2018-04-30T00:01:09.004Z,66.51
2018-04-30T00:02:08.960Z,66.51
2018-04-30T00:03:08.915Z,66.13
2018-04-30T00:04:08.872Z,66.32
2018-04-30T00:05:08.827Z,66.61
2018-04-30T00:06:08.784Z,66.42
2018-04-30T00:07:08.740Z,66.42
2018-04-30T00:08:08.695Z,66.61
2018-04-30T00:09:08.650Z,66.32
2018-04-30T00:10:08.607Z,66.32
2018-04-30T00:11:08.562Z,66.03
2018-04-30T00:12:08.518Z,66.03
2018-04-30T00:13:08.474Z,66.03
2018-04-30T00:14:08.429Z,66.13
2018-04-30T00:15:08.387Z,66.03
2018-04-30T00:16:08.341Z,66.42
2018-04-30T00:17:08.296Z,66.32
2018-04-30T00:18:08.253Z,66.13
2018-04-30T00:19:08.208Z,66.13
2018-04-30T00:20:08.164Z,66.51
2018-04-30T00:21:08.122Z,66.32
2018-04-30T00:22:08.076Z,66.61
2018-04-30T00:23:08.032Z,66.71
2018-04-30T00:24:07.987Z,66.71
2018-04-30T00:25:07.944Z,66.80
2018-04-30T00:26:07.900Z,66.42
2018-04-30T00:27:07.855Z,66.51
2018-04-30T00:28:07.811Z,67.18
2018-04-30T00:29:07.767Z,67.18
2018-04-30T00:30:07.724Z,67.47
2018-04-30T00:31:07.728Z,67.47
2018-04-30T00:32:07.634Z,66.71
2018-04-30T00:33:07.590Z,67.28
2018-04-30T00:34:07.546Z,67.47
2018-04-30T00:35:07.501Z,67.34
2018-04-30T00:36:07.457Z,67.28
2018-04-30T00:37:07.412Z,67.44
2018-04-30T00:38:07.369Z,67.47
2018-04-30T00:39:07.323Z,67.66
2018-04-30T00:40:07.280Z,67.72
2018-04-30T00:41:07.242Z,67.66
2018-04-30T00:42:07.191Z,67.38
2018-04-30T00:43:07.149Z,68.21
2018-04-30T00:44:07.102Z,67.57
2018-04-30T00:45:07.058Z,68.05
2018-04-30T00:46:07.014Z,68.43
2018-04-30T00:47:06.969Z,67.38
2018-04-30T00:48:06.927Z,68.05
2018-04-30T00:49:06.881Z,68.05
2018-04-30T00:50:06.836Z,68.14
2018-04-30T00:51:06.791Z,68.24
2018-04-30T00:52:06.747Z,67.95
2018-04-30T00:53:06.704Z,68.52
2018-04-30T00:54:06.668Z,68.43
2018-04-30T00:55:06.614Z,68.87
2018-04-30T00:56:06.570Z,68.91
2018-04-30T00:57:06.526Z,68.33
2018-04-30T00:58:06.481Z,68.52
2018-04-30T00:59:06.436Z,68.49
2018-04-30T01:00:06.392Z,68.49
2018-04-30T01:01:06.348Z,68.78
2018-04-30T01:02:06.304Z,69.17
2018-04-30T01:03:06.259Z,69.17
2018-04-30T01:04:06.215Z,69.74
2018-04-30T01:05:06.170Z,69.45
2018-04-30T01:06:06.129Z,69.26
2018-04-30T01:07:06.082Z,69.54
2018-04-30T01:08:06.037Z,69.35
2018-04-30T01:09:05.994Z,69.54
2018-04-30T01:10:05.949Z,70.12
2018-04-30T01:11:05.904Z,70.12
2018-04-30T01:12:05.911Z,70.12
2018-04-30T01:13:05.815Z,70.03
2018-04-30T01:14:05.771Z,70.41
2018-04-30T01:15:05.725Z,70.41
2018-04-30T01:16:05.682Z,70.31
2018-04-30T01:17:05.637Z,70.03
2018-04-30T01:18:05.593Z,70.03
2018-04-30T01:19:05.549Z,70.50
2018-04-30T01:20:05.504Z,70.89
2018-04-30T01:21:05.459Z,71.08
2018-04-30T01:22:05.416Z,71.08
2018-04-30T01:23:05.370Z,71.08
2018-04-30T01:24:05.326Z,71.56
2018-04-30T01:25:05.281Z,70.98
2018-04-30T01:26:05.237Z,71.17
2018-04-30T01:27:05.194Z,71.56
2018-04-30T01:28:05.151Z,71.56
2018-04-30T01:29:05.104Z,71.75
2018-04-30T01:30:05.064Z,71.94
2018-04-30T01:31:05.014Z,72.23
2018-04-30T01:32:04.970Z,71.84
2018-04-30T01:33:04.927Z,71.84
2018-04-30T01:34:04.882Z,71.94
2018-04-30T01:35:04.837Z,71.66
2018-04-30T01:36:04.792Z,72.13
2018-04-30T01:37:04.747Z,72.42
2018-04-30T01:38:04.704Z,72.71
2018-04-30T01:39:04.659Z,72.13
2018-04-30T01:40:04.614Z,72.52
2018-04-30T01:41:04.570Z,72.52
2018-04-30T01:42:04.526Z,72.52
2018-04-30T01:43:04.486Z,73.09
2018-04-30T01:44:04.437Z,72.61
2018-04-30T01:45:04.394Z,72.71
2018-04-30T01:46:04.351Z,72.61
2018-04-30T01:47:04.303Z,72.42
2018-04-30T01:48:04.308Z,73.19
2018-04-30T01:49:04.214Z,73.19
2018-04-30T01:50:04.170Z,73.09
2018-04-30T01:51:04.125Z,73.47
2018-04-30T01:52:04.103Z,73.66
2018-04-30T01:53:04.036Z,73.47
2018-04-30T01:54:03.992Z,73.47
2018-04-30T01:55:03.947Z,73.76
2018-04-30T01:56:03.905Z,73.76
2018-04-30T01:57:03.861Z,73.76
2018-04-30T01:58:03.814Z,73.76
2018-04-30T01:59:03.773Z,73.76
2018-04-30T02:00:03.725Z,73.95
2018-04-30T02:01:03.681Z,73.47
2018-04-30T02:02:03.638Z,74.15
2018-04-30T02:03:03.591Z,74.33
2018-04-30T02:04:03.546Z,74.24
2018-04-30T02:05:03.502Z,73.86
2018-04-30T02:06:03.458Z,73.95
2018-04-30T02:07:03.414Z,74.05
2018-04-30T02:08:03.369Z,74.82
2018-04-30T02:09:03.326Z,74.43
2018-04-30T02:10:03.281Z,74.33
2018-04-30T02:11:03.237Z,74.52
2018-04-30T02:12:03.228Z,75.10
2018-04-30T02:13:03.148Z,74.91
2018-04-30T02:14:03.102Z,75.01
2018-04-30T02:15:03.056Z,75.01
2018-04-30T02:16:03.015Z,75.10
2018-04-30T02:17:02.968Z,74.82
2018-04-30T02:18:02.927Z,75.48
2018-04-30T02:19:02.879Z,75.01
2018-04-30T02:20:02.834Z,75.01
2018-04-30T02:21:02.790Z,75.10
2018-04-30T02:22:02.746Z,75.20
2018-04-30T02:23:02.700Z,75.68
2018-04-30T02:24:02.656Z,75.68
2018-04-30T02:25:02.611Z,75.39
2018-04-30T02:26:02.567Z,75.48
2018-04-30T02:27:02.522Z,75.48
2018-04-30T02:28:02.478Z,75.48
2018-04-30T02:29:02.437Z,75.58
2018-04-30T02:30:02.389Z,76.06
2018-04-30T02:31:02.344Z,76.44
2018-04-30T02:32:02.299Z,75.77
2018-04-30T02:33:02.255Z,75.68
2018-04-30T02:34:02.210Z,76.15
2018-04-30T02:35:02.164Z,76.15
2018-04-30T02:36:02.125Z,75.96
2018-04-30T02:37:02.078Z,76.06
2018-04-30T02:38:02.030Z,76.02
2018-04-30T02:39:01.986Z,76.06
2018-04-30T02:40:01.941Z,76.15
2018-04-30T02:41:01.897Z,76.15
2018-04-30T02:42:01.854Z,76.15
2018-04-30T02:43:01.809Z,75.96
2018-04-30T02:44:01.764Z,76.50
2018-04-30T02:45:01.761Z,76.44
2018-04-30T02:46:01.674Z,76.69
2018-04-30T02:47:01.629Z,76.69
2018-04-30T02:48:01.584Z,76.31
2018-04-30T02:49:01.540Z,76.60
2018-04-30T02:50:01.496Z,76.69
2018-04-30T02:51:01.451Z,76.60
2018-04-30T02:52:01.405Z,76.60
2018-04-30T02:53:01.361Z,76.69
2018-04-30T02:54:01.316Z,76.98
2018-04-30T02:55:01.271Z,76.98
2018-04-30T02:56:01.225Z,76.21
2018-04-30T02:57:01.186Z,76.50
2018-04-30T02:58:01.147Z,77.08
2018-04-30T02:59:01.093Z,76.50
2018-04-30T03:00:01.047Z,76.69
2018-04-30T03:01:01.002Z,76.79
2018-04-30T03:02:00.957Z,76.12
2018-04-30T03:03:00.911Z,76.50
2018-04-30T03:04:00.868Z,76.31
2018-04-30T03:05:00.822Z,76.69
2018-04-30T03:06:00.778Z,76.21
2018-04-30T03:07:00.734Z,76.31
2018-04-30T03:08:00.688Z,76.21
2018-04-30T03:09:00.643Z,76.21
2018-04-30T03:10:00.599Z,76.31
2018-04-30T03:11:00.570Z,76.50
2018-04-30T03:12:00.511Z,76.31
2018-04-30T03:13:00.464Z,76.31
2018-04-30T03:14:00.420Z,76.50
2018-04-30T03:15:00.374Z,76.40
2018-04-30T03:16:00.330Z,76.79
2018-04-30T03:17:00.285Z,76.31
2018-04-30T03:18:00.241Z,76.40
2018-04-30T03:19:00.195Z,76.50
2018-04-30T03:20:00.150Z,76.69
2018-04-30T03:21:00.105Z,76.79
2018-04-30T03:22:00.061Z,76.60
2018-04-30T03:23:00.015Z,76.60
2018-04-30T03:23:59.970Z,76.40
2018-04-30T03:24:59.926Z,76.40
2018-04-30T03:25:59.881Z,76.46
2018-04-30T03:26:59.836Z,76.37
2018-04-30T03:27:59.791Z,76.46
2018-04-30T03:28:59.747Z,76.94
2018-04-30T03:29:59.702Z,76.56
2018-04-30T03:30:59.657Z,76.79
2018-04-30T03:31:59.612Z,76.40
2018-04-30T03:32:59.568Z,76.46
2018-04-30T03:33:59.527Z,76.50
2018-04-30T03:34:59.479Z,76.65
2018-04-30T03:35:59.433Z,76.65
2018-04-30T03:36:59.390Z,76.75
2018-04-30T03:37:59.344Z,76.37
2018-04-30T03:38:59.299Z,76.31
2018-04-30T03:39:59.254Z,76.46
2018-04-30T03:40:59.210Z,76.75
2018-04-30T03:41:59.165Z,76.37
2018-04-30T03:42:59.118Z,76.18
2018-04-30T03:43:59.075Z,76.65
2018-04-30T03:44:59.030Z,76.65
2018-04-30T03:45:58.986Z,76.46
2018-04-30T03:46:58.939Z,76.37
2018-04-30T03:47:58.894Z,76.56
2018-04-30T03:48:58.850Z,76.27
2018-04-30T03:49:58.805Z,76.46
2018-04-30T03:50:58.759Z,75.98
2018-04-30T03:51:58.715Z,75.79
2018-04-30T03:52:58.670Z,75.60
2018-04-30T03:53:58.625Z,75.79
2018-04-30T03:54:58.580Z,75.60
2018-04-30T03:55:58.534Z,75.51
2018-04-30T03:56:58.489Z,75.12
2018-04-30T03:57:58.452Z,75.41
2018-04-30T03:58:58.399Z,75.60
2018-04-30T03:59:58.355Z,75.41
2018-04-30T04:00:58.310Z,75.60
2018-04-30T04:01:58.266Z,74.84
2018-04-30T04:02:58.237Z,75.41
2018-04-30T04:03:58.175Z,74.84
2018-04-30T04:04:58.130Z,74.93
2018-04-30T04:05:58.086Z,74.93
2018-04-30T04:06:58.040Z,74.55
2018-04-30T04:07:57.995Z,74.26
2018-04-30T04:08:57.950Z,74.65
2018-04-30T04:09:57.905Z,74.74
2018-04-30T04:10:57.860Z,74.65
2018-04-30T04:11:57.815Z,74.26
2018-04-30T04:12:57.770Z,74.16
2018-04-30T04:13:57.725Z,73.88
2018-04-30T04:14:57.679Z,74.07
2018-04-30T04:15:57.634Z,73.88
2018-04-30T04:16:57.589Z,73.40
2018-04-30T04:17:57.545Z,73.79
2018-04-30T04:18:57.499Z,73.40
2018-04-30T04:19:57.454Z,73.79
2018-04-30T04:20:57.409Z,73.88
2018-04-30T04:21:57.364Z,73.50
2018-04-30T04:22:57.318Z,73.21
2018-04-30T04:23:57.274Z,72.83
2018-04-30T04:24:57.229Z,73.02
2018-04-30T04:25:57.189Z,72.86
2018-04-30T04:26:57.139Z,72.86
2018-04-30T04:27:57.094Z,72.67
2018-04-30T04:28:57.050Z,72.96
2018-04-30T04:29:57.005Z,72.58
2018-04-30T04:30:56.960Z,72.19
2018-04-30T04:31:56.915Z,72.29
2018-04-30T04:32:56.871Z,72.38
2018-04-30T04:33:56.827Z,72.00
2018-04-30T04:34:56.780Z,71.62
2018-04-30T04:35:56.736Z,71.91
2018-04-30T04:36:56.693Z,72.00
2018-04-30T04:37:56.648Z,72.00
2018-04-30T04:38:56.610Z,71.52
2018-04-30T04:39:56.557Z,71.62
2018-04-30T04:40:56.512Z,71.23
2018-04-30T04:41:56.469Z,71.14
2018-04-30T04:42:56.427Z,71.23
2018-04-30T04:43:56.378Z,71.42
2018-04-30T04:44:56.334Z,70.85
2018-04-30T04:45:56.289Z,71.04
2018-04-30T04:46:56.244Z,70.60
2018-04-30T04:47:56.202Z,70.50
2018-04-30T04:48:56.155Z,70.50
2018-04-30T04:49:56.111Z,70.12
2018-04-30T04:50:56.066Z,70.12
2018-04-30T04:51:56.065Z,70.12
2018-04-30T04:52:55.977Z,69.74
2018-04-30T04:53:55.934Z,69.35
2018-04-30T04:54:55.888Z,69.26
2018-04-30T04:55:55.844Z,69.64
2018-04-30T04:56:55.800Z,69.45
2018-04-30T04:57:55.756Z,68.97
2018-04-30T04:58:55.710Z,68.78
2018-04-30T04:59:55.667Z,68.78
2018-04-30T05:00:55.623Z,68.59
2018-04-30T05:01:55.587Z,68.59
2018-04-30T05:02:55.534Z,68.87
2018-04-30T05:03:55.490Z,68.11
2018-04-30T05:04:55.452Z,69.01
2018-04-30T05:05:55.402Z,68.62
2018-04-30T05:06:55.357Z,67.95
2018-04-30T05:07:55.313Z,68.05
2018-04-30T05:08:55.269Z,67.38
2018-04-30T05:09:55.225Z,67.85
2018-04-30T05:10:55.185Z,67.95
2018-04-30T05:11:55.136Z,67.57
2018-04-30T05:12:55.095Z,67.99
2018-04-30T05:13:55.049Z,67.38
2018-04-30T05:14:55.004Z,67.32
2018-04-30T05:15:54.960Z,67.32
2018-04-30T05:16:54.916Z,66.45
2018-04-30T05:17:54.873Z,66.55
2018-04-30T05:18:54.833Z,67.02
2018-04-30T05:19:54.834Z,66.16
2018-04-30T05:20:54.755Z,66.35
2018-04-30T05:21:54.697Z,65.88
2018-04-30T05:22:54.652Z,65.88
2018-04-30T05:23:54.613Z,66.10
2018-04-30T05:24:54.567Z,65.14
2018-04-30T05:25:54.522Z,64.79
2018-04-30T05:26:54.476Z,63.86
2018-04-30T05:27:54.434Z,61.49
2018-04-30T05:28:54.391Z,61.04
2018-04-30T05:29:54.352Z,60.21
2018-04-30T05:30:54.304Z,59.34
2018-04-30T05:31:54.261Z,58.05
2018-04-30T05:32:54.222Z,57.60
2018-04-30T05:33:54.253Z,55.79
2018-04-30T05:34:54.133Z,55.05
2018-04-30T05:35:54.091Z,54.11
2018-04-30T05:36:54.049Z,52.89
2018-04-30T05:37:54.008Z,51.85
2018-04-30T05:38:53.965Z,50.52
2018-04-30T05:39:53.924Z,49.90
2018-04-30T05:40:53.883Z,48.57
2018-04-30T05:41:53.843Z,47.50
2018-04-30T05:42:53.801Z,46.94
2018-04-30T05:43:53.762Z,46.58
2018-04-30T05:44:53.722Z,46.00
2018-04-30T05:45:53.685Z,44.96
2018-04-30T05:46:53.643Z,44.27
2018-04-30T05:47:53.653Z,44.86
2018-04-30T05:48:53.566Z,44.45
2018-04-30T05:49:53.527Z,45.20
2018-04-30T05:50:53.487Z,44.70
2018-04-30T05:51:53.448Z,45.91
2018-04-30T05:52:53.414Z,46.85
2018-04-30T05:53:53.371Z,47.50
2018-04-30T05:54:53.331Z,48.35
2018-04-30T05:55:53.293Z,49.17
2018-04-30T05:56:53.254Z,50.11
2018-04-30T05:57:53.213Z,51.53
2018-04-30T05:58:53.173Z,51.98
2018-04-30T05:59:53.133Z,52.92
2018-04-30T06:00:53.093Z,53.78
2018-04-30T06:01:53.053Z,53.78
2018-04-30T06:02:53.011Z,53.98
2018-04-30T06:03:52.971Z,54.17
2018-04-30T06:04:52.930Z,54.56
2018-04-30T06:05:52.889Z,53.81
2018-04-30T06:06:52.906Z,52.87
2018-04-30T06:07:52.808Z,51.68
2018-04-30T06:08:52.766Z,50.01
2018-04-30T06:09:52.727Z,48.59
2018-04-30T06:10:52.688Z,46.68
2018-04-30T06:11:52.651Z,46.34
2018-04-30T06:12:52.605Z,45.01
2018-04-30T06:13:52.565Z,43.60
2018-04-30T06:14:52.525Z,42.85
2018-04-30T06:15:52.493Z,42.11
2018-04-30T06:16:52.448Z,41.16
2018-04-30T06:17:52.410Z,40.21
2018-04-30T06:18:52.371Z,39.14
2018-04-30T06:19:52.337Z,38.57
2018-04-30T06:20:52.296Z,37.99
2018-04-30T06:21:52.260Z,37.43
2018-04-30T06:22:52.222Z,36.96
2018-04-30T06:23:52.186Z,36.46
2018-04-30T06:24:52.150Z,36.36
2018-04-30T06:25:52.114Z,36.46
2018-04-30T06:26:52.174Z,36.08
2018-04-30T06:27:52.042Z,35.23
2018-04-30T06:28:52.008Z,35.05
2018-04-30T06:29:51.973Z,35.05
2018-04-30T06:30:51.935Z,34.58
2018-04-30T06:31:51.900Z,34.29
2018-04-30T06:32:51.866Z,33.62
2018-04-30T06:33:51.831Z,33.04
2018-04-30T06:34:51.795Z,32.76
2018-04-30T06:35:51.815Z,32.35
2018-04-30T06:36:51.725Z,32.26
2018-04-30T06:37:51.693Z,32.57
2018-04-30T06:38:51.657Z,32.09
2018-04-30T06:39:51.624Z,31.51
2018-04-30T06:40:51.590Z,31.60
2018-04-30T06:41:51.557Z,31.33
2018-04-30T06:42:51.521Z,30.94
2018-04-30T06:43:51.491Z,30.84
2018-04-30T06:44:51.457Z,30.66
2018-04-30T06:45:51.420Z,30.48
2018-04-30T06:46:51.386Z,30.19
2018-04-30T06:47:51.353Z,29.41
2018-04-30T06:48:51.319Z,29.31
2018-04-30T06:49:51.286Z,29.13
2018-04-30T06:50:51.253Z,29.13
2018-04-30T06:51:51.219Z,29.32
2018-04-30T06:52:51.186Z,29.04
2018-04-30T06:53:51.155Z,28.94
2018-04-30T06:54:51.120Z,28.39
2018-04-30T06:55:51.088Z,27.72
2018-04-30T06:56:51.058Z,27.33
2018-04-30T06:57:51.023Z,27.03
2018-04-30T06:58:50.990Z,26.64
2018-04-30T06:59:50.957Z,27.01
2018-04-30T07:00:50.926Z,26.92
2018-04-30T07:01:50.897Z,27.03
2018-04-30T07:02:50.863Z,26.73
2018-04-30T07:03:50.830Z,26.55
2018-04-30T07:04:50.798Z,26.46
2018-04-30T07:05:50.768Z,25.88
2018-04-30T07:06:50.731Z,26.27
2018-04-30T07:07:50.699Z,26.07
2018-04-30T07:08:50.668Z,25.68
2018-04-30T07:09:50.644Z,26.17
2018-04-30T07:10:50.604Z,25.96
2018-04-30T07:11:50.572Z,26.07
2018-04-30T07:12:50.548Z,25.68
2018-04-30T07:13:50.510Z,25.99
2018-04-30T07:14:50.478Z,25.43
2018-04-30T07:15:50.447Z,25.24
2018-04-30T07:16:50.415Z,24.07
2018-04-30T07:17:50.384Z,23.99
2018-04-30T07:18:50.352Z,23.40
2018-04-30T07:19:50.322Z,23.60
2018-04-30T07:20:50.289Z,23.49
2018-04-30T07:21:50.260Z,23.86
2018-04-30T07:22:50.228Z,24.24
2018-04-30T07:23:50.197Z,25.01
2018-04-30T07:24:50.165Z,25.39
2018-04-30T07:25:50.136Z,26.06
2018-04-30T07:26:50.103Z,26.54
2018-04-30T07:27:50.099Z,26.44
2018-04-30T07:28:50.040Z,26.54
2018-04-30T07:29:50.008Z,26.44
2018-04-30T07:30:49.976Z,26.44
2018-04-30T07:31:49.948Z,26.95
2018-04-30T07:32:49.919Z,26.73
2018-04-30T07:33:49.881Z,26.45
2018-04-30T07:34:49.850Z,26.09
2018-04-30T07:35:49.817Z,25.90
2018-04-30T07:36:49.785Z,25.04
2018-04-30T07:37:49.754Z,24.18
2018-04-30T07:38:49.722Z,23.93
2018-04-30T07:39:49.691Z,22.75
2018-04-30T07:40:49.662Z,22.37
2018-04-30T07:41:49.629Z,22.36
2018-04-30T07:42:49.598Z,22.06
2018-04-30T07:43:49.568Z,22.46
2018-04-30T07:44:49.537Z,22.36
2018-04-30T07:45:49.507Z,21.97
2018-04-30T07:46:49.476Z,22.06
2018-04-30T07:47:49.496Z,22.06
2018-04-30T07:48:49.415Z,22.17
2018-04-30T07:49:49.386Z,21.60
2018-04-30T07:50:49.357Z,21.02
2018-04-30T07:51:49.325Z,21.02
2018-04-30T07:52:49.299Z,21.12
2018-04-30T07:53:49.266Z,21.22
2018-04-30T07:54:49.235Z,21.02
2018-04-30T07:55:49.206Z,21.02
2018-04-30T07:56:49.176Z,21.23
2018-04-30T07:57:49.147Z,19.95
2018-04-30T07:58:49.117Z,20.73
2018-04-30T07:59:49.088Z,20.83
2018-04-30T08:00:49.059Z,20.72
2018-04-30T08:01:49.030Z,20.90
2018-04-30T08:02:49.000Z,21.29
2018-04-30T08:03:48.970Z,21.67
2018-04-30T08:04:48.942Z,22.45
2018-04-30T08:05:48.913Z,22.45
2018-04-30T08:06:48.883Z,22.64
2018-04-30T08:07:48.854Z,22.17
2018-04-30T08:08:48.825Z,21.41
2018-04-30T08:09:48.797Z,21.03
2018-04-30T08:10:48.765Z,20.56
2018-04-30T08:11:48.743Z,19.77
2018-04-30T08:12:48.712Z,20.17
2018-04-30T08:13:48.679Z,20.17
2018-04-30T08:14:48.669Z,20.08
2018-04-30T08:15:48.623Z,19.31
2018-04-30T08:16:48.592Z,19.21
2018-04-30T08:17:48.563Z,19.21
2018-04-30T08:18:48.535Z,19.30
2018-04-30T08:19:48.511Z,19.29
2018-04-30T08:20:48.478Z,19.30
2018-04-30T08:21:48.449Z,19.21
2018-04-30T08:22:48.420Z,19.42
2018-04-30T08:23:48.392Z,18.65
2018-04-30T08:24:48.364Z,18.35
2018-04-30T08:25:48.335Z,18.24
2018-04-30T08:26:48.337Z,18.42
2018-04-30T08:27:48.280Z,19.01
2018-04-30T08:28:48.252Z,19.29
2018-04-30T08:29:48.225Z,19.89
2018-04-30T08:30:48.196Z,19.50
2018-04-30T08:31:48.172Z,19.11
2018-04-30T08:32:48.140Z,19.11
2018-04-30T08:33:48.115Z,18.93
2018-04-30T08:34:48.090Z,18.74
2018-04-30T08:35:48.056Z,18.37
2018-04-30T08:36:48.028Z,17.79
2018-04-30T08:37:48.002Z,17.58
2018-04-30T08:38:47.974Z,17.29
2018-04-30T08:39:47.949Z,16.99
2018-04-30T08:40:47.921Z,17.48
2018-04-30T08:41:47.893Z,17.38
2018-04-30T08:42:47.865Z,17.28
2018-04-30T08:43:47.840Z,16.98
2018-04-30T08:44:47.812Z,17.18
2018-04-30T08:45:47.785Z,17.66
2018-04-30T08:46:47.758Z,17.86
2018-04-30T08:47:47.732Z,17.77
2018-04-30T08:48:47.709Z,17.38
2018-04-30T08:49:47.678Z,17.38
2018-04-30T08:50:47.650Z,17.19
2018-04-30T08:51:47.624Z,16.80
2018-04-30T08:52:47.598Z,16.80
2018-04-30T08:53:47.570Z,16.81
2018-04-30T08:54:47.543Z,16.72
2018-04-30T08:55:47.516Z,16.03
2018-04-30T08:56:47.489Z,16.03
2018-04-30T08:57:47.463Z,16.33
2018-04-30T08:58:47.436Z,15.64
2018-04-30T08:59:47.409Z,15.64
2018-04-30T09:00:47.384Z,15.44
2018-04-30T09:01:47.363Z,15.13
2018-04-30T09:02:47.331Z,15.10
2018-04-30T09:03:47.304Z,16.18
2018-04-30T09:04:47.277Z,16.08
2018-04-30T09:05:47.251Z,16.58
2018-04-30T09:06:47.223Z,16.28
2018-04-30T09:07:47.197Z,16.30
2018-04-30T09:08:47.171Z,15.52
2018-04-30T09:09:47.183Z,15.53
2018-04-30T09:10:47.117Z,15.44
2018-04-30T09:11:47.093Z,15.24
2018-04-30T09:12:47.069Z,15.25
2018-04-30T09:13:47.089Z,14.65
2018-04-30T09:14:47.013Z,14.43
2018-04-30T09:15:46.986Z,15.01
2018-04-30T09:16:46.963Z,15.41
2018-04-30T09:17:46.934Z,15.50
2018-04-30T09:18:46.912Z,15.99
2018-04-30T09:19:46.882Z,15.70
2018-04-30T09:20:46.855Z,16.19
2018-04-30T09:21:46.829Z,16.09
2018-04-30T09:22:46.802Z,15.80
2018-04-30T09:23:46.863Z,16.21
2018-04-30T09:24:46.763Z,15.61
2018-04-30T09:25:46.723Z,15.42
2018-04-30T09:26:46.696Z,16.01
2018-04-30T09:27:46.670Z,15.70
2018-04-30T09:28:46.644Z,16.40
2018-04-30T09:29:46.618Z,16.20
2018-04-30T09:30:46.590Z,16.30
2018-04-30T09:31:46.570Z,15.70
2018-04-30T09:32:46.537Z,15.70
2018-04-30T09:33:46.514Z,16.19
2018-04-30T09:34:46.484Z,16.28
2018-04-30T09:35:46.457Z,15.70
2018-04-30T09:36:46.431Z,16.19
2018-04-30T09:37:46.408Z,15.30
2018-04-30T09:38:46.377Z,15.68
2018-04-30T09:39:46.353Z,15.78
2018-04-30T09:40:46.324Z,15.89
2018-04-30T09:41:46.297Z,15.88
2018-04-30T09:42:46.269Z,15.88
2018-04-30T09:43:46.242Z,16.16
2018-04-30T09:44:46.215Z,16.94
2018-04-30T09:45:46.194Z,17.71
2018-04-30T09:46:46.159Z,18.56
2018-04-30T09:47:46.131Z,19.92
2018-04-30T09:48:46.103Z,20.78
2018-04-30T09:49:46.085Z,21.43
2018-04-30T09:50:46.048Z,22.49
2018-04-30T09:51:46.015Z,23.45
2018-04-30T09:52:45.985Z,24.41
2018-04-30T09:53:45.959Z,25.17
2018-04-30T09:54:45.923Z,25.94
2018-04-30T09:55:45.892Z,26.71
2018-04-30T09:56:45.860Z,27.19
2018-04-30T09:57:45.859Z,27.86
2018-04-30T09:58:45.797Z,28.04
2018-04-30T09:59:45.765Z,28.81
2018-04-30T10:00:45.732Z,29.30
2018-04-30T10:01:45.700Z,29.08
2018-04-30T10:02:45.665Z,29.38
2018-04-30T10:03:45.633Z,30.06
2018-04-30T10:04:45.604Z,30.24
2018-04-30T10:05:45.572Z,29.95
2018-04-30T10:06:45.532Z,30.93
2018-04-30T10:07:45.499Z,31.01
2018-04-30T10:08:45.465Z,31.59
2018-04-30T10:09:45.431Z,32.47
2018-04-30T10:10:45.397Z,32.28
2018-04-30T10:11:45.362Z,32.47
2018-04-30T10:12:45.328Z,32.76
2018-04-30T10:13:45.294Z,32.76
2018-04-30T10:14:45.259Z,33.04
2018-04-30T10:15:45.224Z,33.33
2018-04-30T10:16:45.194Z,33.72
2018-04-30T10:17:45.227Z,33.82
2018-04-30T10:18:45.120Z,33.92
2018-04-30T10:19:45.088Z,34.32
2018-04-30T10:20:45.050Z,34.79
2018-04-30T10:21:45.015Z,35.18
2018-04-30T10:22:44.979Z,35.28
2018-04-30T10:23:45.002Z,35.28
2018-04-30T10:24:44.916Z,36.16
2018-04-30T10:25:44.881Z,36.55
2018-04-30T10:26:44.838Z,36.92
2018-04-30T10:27:44.803Z,36.82
2018-04-30T10:28:44.768Z,36.82
2018-04-30T10:29:44.733Z,36.71
2018-04-30T10:30:44.698Z,37.10
2018-04-30T10:31:44.700Z,37.00
2018-04-30T10:32:44.626Z,37.68
2018-04-30T10:33:44.591Z,37.58
2018-04-30T10:34:44.557Z,37.48
2018-04-30T10:35:44.518Z,37.19
2018-04-30T10:36:44.482Z,37.19
2018-04-30T10:37:44.497Z,37.19
2018-04-30T10:38:44.410Z,37.10
2018-04-30T10:39:44.376Z,37.58
2018-04-30T10:40:44.339Z,37.29
2018-04-30T10:41:44.304Z,37.56
2018-04-30T10:42:44.267Z,38.24
2018-04-30T10:43:44.231Z,38.32
2018-04-30T10:44:44.198Z,38.42
2018-04-30T10:45:44.233Z,38.60
2018-04-30T10:46:44.121Z,38.96
2018-04-30T10:47:44.087Z,38.96
2018-04-30T10:48:44.049Z,39.06
2018-04-30T10:49:44.013Z,39.36
2018-04-30T10:50:43.975Z,39.43
2018-04-30T10:51:44.074Z,39.43
2018-04-30T10:52:43.906Z,39.34
2018-04-30T10:53:43.865Z,39.24
2018-04-30T10:54:43.833Z,39.34
2018-04-30T10:55:43.798Z,38.95
2018-04-30T10:56:43.754Z,39.04
2018-04-30T10:57:43.717Z,38.96
2018-04-30T10:58:43.686Z,38.96
2018-04-30T10:59:43.643Z,38.57
2018-04-30T11:00:43.607Z,38.57
2018-04-30T11:01:43.569Z,38.67
2018-04-30T11:02:43.609Z,38.67
2018-04-30T11:03:43.494Z,38.67
2018-04-30T11:04:43.463Z,38.67
2018-04-30T11:05:43.426Z,38.57
2018-04-30T11:06:43.383Z,38.57
2018-04-30T11:07:43.346Z,38.60
2018-04-30T11:08:43.310Z,37.92
2018-04-30T11:09:43.273Z,37.84
2018-04-30T11:10:43.235Z,36.96
2018-04-30T11:11:43.200Z,36.88
2018-04-30T11:12:43.162Z,36.79
2018-04-30T11:13:43.125Z,36.40
2018-04-30T11:14:43.091Z,36.87
2018-04-30T11:15:43.052Z,36.57
2018-04-30T11:16:43.015Z,37.14
2018-04-30T11:17:42.978Z,37.43
2018-04-30T11:18:42.941Z,37.70
2018-04-30T11:19:42.958Z,38.09
2018-04-30T11:20:42.868Z,38.27
2018-04-30T11:21:42.837Z,38.73
2018-04-30T11:22:42.873Z,39.20
2018-04-30T11:23:42.756Z,39.69
2018-04-30T11:24:42.719Z,40.15
2018-04-30T11:25:42.682Z,40.15
2018-04-30T11:26:42.648Z,40.34
2018-04-30T11:27:42.679Z,39.95
2018-04-30T11:28:42.569Z,40.25
2018-04-30T11:29:42.532Z,40.05
2018-04-30T11:30:42.493Z,39.95
2018-04-30T11:31:42.456Z,40.05
2018-04-30T11:32:42.418Z,40.42
2018-04-30T11:33:42.380Z,40.61
2018-04-30T11:34:42.341Z,41.30
2018-04-30T11:35:42.303Z,41.47
2018-04-30T11:36:42.270Z,42.34
2018-04-30T11:37:42.228Z,42.41
2018-04-30T11:38:42.188Z,42.51
2018-04-30T11:39:42.151Z,42.41
2018-04-30T11:40:42.111Z,42.61
2018-04-30T11:41:42.076Z,42.80
2018-04-30T11:42:42.034Z,42.71
2018-04-30T11:43:41.995Z,42.71
2018-04-30T11:44:41.956Z,42.34
2018-04-30T11:45:41.918Z,42.14
2018-04-30T11:46:41.878Z,41.56
2018-04-30T11:47:41.840Z,41.49
2018-04-30T11:48:41.801Z,41.39
2018-04-30T11:49:41.763Z,41.39
2018-04-30T11:50:41.723Z,41.10
2018-04-30T11:51:41.685Z,41.20
2018-04-30T11:52:41.648Z,41.39
2018-04-30T11:53:41.608Z,41.49
2018-04-30T11:54:41.569Z,41.68
2018-04-30T11:55:41.530Z,41.49
2018-04-30T11:56:41.492Z,41.47
2018-04-30T11:57:41.453Z,41.47
2018-04-30T11:58:41.492Z,41.37
2018-04-30T11:59:41.432Z,41.16
2018-04-30T12:00:41.340Z,40.96
2018-04-30T12:01:41.303Z,41.08
2018-04-30T12:02:41.259Z,41.47
2018-04-30T12:03:41.221Z,41.47
2018-04-30T12:04:41.182Z,41.08
2018-04-30T12:05:41.144Z,41.20
2018-04-30T12:06:41.104Z,40.81
2018-04-30T12:07:41.067Z,40.52
2018-04-30T12:08:41.029Z,40.42
2018-04-30T12:09:40.989Z,40.33
2018-04-30T12:10:40.949Z,40.52
2018-04-30T12:11:40.911Z,40.13
2018-04-30T12:12:40.873Z,40.13
2018-04-30T12:13:40.905Z,40.03
2018-04-30T12:14:40.796Z,40.03
2018-04-30T12:15:40.757Z,39.84
2018-04-30T12:16:40.730Z,39.94
2018-04-30T12:17:40.680Z,39.65
2018-04-30T12:18:40.641Z,39.53
2018-04-30T12:19:40.608Z,39.34
2018-04-30T12:20:40.565Z,39.62
2018-04-30T12:21:40.529Z,39.70
2018-04-30T12:22:40.487Z,39.90
2018-04-30T12:23:40.449Z,40.58
2018-04-30T12:24:40.411Z,41.06
2018-04-30T12:25:40.375Z,41.33
2018-04-30T12:26:40.336Z,41.91
2018-04-30T12:27:40.295Z,42.66
2018-04-30T12:28:40.256Z,42.47
2018-04-30T12:29:40.300Z,42.76
2018-04-30T12:30:40.177Z,42.86
2018-04-30T12:31:40.138Z,42.86
2018-04-30T12:32:40.099Z,42.76
2018-04-30T12:33:40.060Z,42.76
2018-04-30T12:34:40.020Z,42.76
2018-04-30T12:35:40.087Z,42.76
2018-04-30T12:36:39.941Z,42.47
2018-04-30T12:37:39.903Z,42.76
2018-04-30T12:38:39.862Z,42.08
2018-04-30T12:39:39.823Z,41.99
2018-04-30T12:40:39.785Z,41.41
2018-04-30T12:41:39.746Z,41.52
2018-04-30T12:42:39.705Z,41.04
2018-04-30T12:43:39.740Z,40.26
2018-04-30T12:44:39.628Z,39.97
2018-04-30T12:45:39.589Z,39.51
2018-04-30T12:46:39.549Z,39.03
2018-04-30T12:47:39.510Z,38.64
2018-04-30T12:48:39.478Z,38.45
2018-04-30T12:49:39.452Z,38.25
2018-04-30T12:50:39.397Z,37.87
2018-04-30T12:51:39.360Z,37.87